Virginia City Highlands, Nevada
Current Conditions -  °F | °C
As of 3:55 AM on Thursday 23 Oct 2014 (Local Time) from KRNO Reporting Station
Clear Clear  
Wind Chill: 50°   Ceiling: Unl
Heat Index: 50°   Visibility: 10mi
Dew Point: 30°   Wind: 5mph
Humidity: 46%   Direction: 60°ENE
Pressure: 30.07"   Gusts: NA
Location:  39.3892°N, 119.693°W
Report Text: KRNO 231055Z 06004KT 10SM CLR 10/M01 A3007 RMK AO2 SLP148 T01001011
Loading
Personal Weather Stations






























Interactive Weather Map
Tropical Storm Tracking
New forecast layout! Learn more

10-Day Weather Forecast

Advertisements
Track Severe Weather on mobile